M/V Donald Wood — WDH7537 — position and weather

sailwx.info

Track history (hours):
 
Tides and Currents Weather Stations Pressure Air Temp Water Temp Dewpoint Dewpoint Depression Visibility Wind Speed Wind Dir Waves Ship Positions

M/V Donald Wood

Owner: Wood Towing, LLC., Avondale, LA. More information available from US FCC via Universal Licensing System.

Last reported at 2018-Feb-20 09:47 UTC. Time now 2018-Feb-20 11:25 UTC.
Position N 29°46' W 095°05'.

Length 23 m; draft 2.6 m.

Type: Towing. MMSI: 367649170.

Date/timePositionNaut miles runAvg speedWind from/ knotsBaromVisibWave heightAir tempDewpointWater temp
2018-Feb-20 09:47N 29°46' W 095°05'3 2.8
2018-Feb-20 08:37N 29°44' W 095°02'1 3.7
2018-Feb-20 08:20N 29°43' W 095°01'1 3.8
2018-Feb-20 08:00N 29°42' W 095°01'2 4.2
2018-Feb-20 07:30N 29°41' W 094°59'2 4.3
2018-Feb-20 07:00N 29°39' W 094°58'2 4.5
2018-Feb-20 06:30N 29°37' W 094°57'2 4.5
2018-Feb-20 06:00N 29°35' W 094°56'2 4.5
2018-Feb-20 05:30N 29°33' W 094°55'13 1.7
2018-Feb-19 21:50N 29°27' W 094°41'1 3.3
2018-Feb-19 21:24N 29°28' W 094°39'2 3.1
2018-Feb-19 20:44N 29°29' W 094°37'1 3.5
2018-Feb-19 20:30N 29°29' W 094°36'2 3.3
2018-Feb-19 19:52N 29°30' W 094°34'1 2.9
2018-Feb-19 19:30N 29°30' W 094°33'3 3.7
2018-Feb-19 18:45N 29°31' W 094°30'1 3.5
2018-Feb-19 18:26N 29°32' W 094°29'0 0.9
2018-Feb-19 18:00N 29°32' W 094°29'0 0.0
2018-Feb-19 17:21N 29°32' W 094°29'0 0.0
2018-Feb-19 16:58N 29°32' W 094°29'0 0.1
2018-Feb-19 16:29N 29°32' W 094°29'1 2.7
2018-Feb-19 16:00N 29°33' W 094°28'0 0.6
2018-Feb-19 15:30N 29°34' W 094°28'0 0.0
2018-Feb-19 15:00N 29°34' W 094°28'0 0.1
2018-Feb-19 14:30N 29°34' W 094°27'0 0.5
2018-Feb-19 14:00N 29°34' W 094°27'1 2.2
2018-Feb-19 13:30N 29°34' W 094°26'0 0.2
2018-Feb-19 12:46N 29°34' W 094°26'0 0.0
2018-Feb-19 12:29N 29°34' W 094°26'0 0.0
2018-Feb-19 11:57N 29°34' W 094°26'0 0.1
2018-Feb-19 11:28N 29°34' W 094°26'0 0.0
2018-Feb-19 10:55N 29°34' W 094°26'0 0.0
2018-Feb-19 10:30N 29°34' W 094°26'0 0.0
2018-Feb-19 10:00N 29°34' W 094°26'0 0.0
2018-Feb-19 09:30N 29°34' W 094°26'0 0.0
2018-Feb-19 09:00N 29°34' W 094°26'0 0.0
2018-Feb-19 08:30N 29°34' W 094°26'0 0.0
2018-Feb-19 08:00N 29°34' W 094°26'0 0.0
2018-Feb-19 07:30N 29°34' W 094°26'0 0.0
2018-Feb-19 07:00N 29°34' W 094°26'0 0.0
2018-Feb-19 06:30N 29°34' W 094°26'0 0.0
2018-Feb-19 06:00N 29°34' W 094°26'0 0.0
2018-Feb-19 05:30N 29°34' W 094°26'0 0.0
2018-Feb-19 05:00N 29°34' W 094°26'0 0.0
2018-Feb-19 04:27N 29°34' W 094°26'0 0.0
2018-Feb-19 03:54N 29°34' W 094°26'0 0.0
2018-Feb-19 03:30N 29°34' W 094°26'0 0.0
2018-Feb-19 02:57N 29°34' W 094°26'0 0.0
2018-Feb-19 02:30N 29°34' W 094°26'0 0.0
2018-Feb-19 02:00N 29°34' W 094°26'0 0.0
2018-Feb-19 01:30N 29°34' W 094°26'0 0.0
2018-Feb-19 00:06N 29°34' W 094°26'0 0.1
2018-Feb-18 23:41N 29°34' W 094°26'0 0.0
2018-Feb-18 23:30N 29°34' W 094°26'0 0.1
2018-Feb-18 22:41N 29°34' W 094°26'0 1.5
2018-Feb-18 22:23N 29°34' W 094°25'2 3.8
2018-Feb-18 21:58N 29°36' W 094°25'2 3.7
2018-Feb-18 21:30N 29°36' W 094°23'2 3.9
2018-Feb-18 21:00N 29°37' W 094°21'2 4.3
2018-Feb-18 20:30N 29°38' W 094°19'2 3.0
2018-Feb-18 20:00N 29°38' W 094°17'1 2.8
2018-Feb-18 19:30N 29°39' W 094°16'1 1.3
2018-Feb-18 19:00N 29°39' W 094°15'1 2.1
2018-Feb-18 18:30N 29°40' W 094°14'1 2.4
2018-Feb-18 18:00N 29°40' W 094°13'0 0.0
2018-Feb-18 17:30N 29°40' W 094°13'0 0.0
2018-Feb-18 17:00N 29°40' W 094°13'0 0.0
2018-Feb-18 16:30N 29°40' W 094°13'0 0.0
2018-Feb-18 16:00N 29°40' W 094°13'0 0.0
2018-Feb-18 15:31N 29°40' W 094°13'0 0.0
2018-Feb-18 15:00N 29°40' W 094°13'0 0.0
2018-Feb-18 14:30N 29°40' W 094°13'0 0.0
2018-Feb-18 14:00N 29°40' W 094°13'0 0.0
2018-Feb-18 13:30N 29°40' W 094°13'0 0.0
2018-Feb-18 13:00N 29°40' W 094°13'0 0.0
2018-Feb-18 12:30N 29°40' W 094°13'0 0.0
2018-Feb-18 12:00N 29°40' W 094°13'0 0.0
2018-Feb-18 11:30N 29°40' W 094°13'0 0.0
2018-Feb-18 10:58N 29°40' W 094°13'0 0.0
2018-Feb-18 10:30N 29°40' W 094°13'0 0.0
2018-Feb-18 10:00N 29°40' W 094°13'0 0.0
2018-Feb-18 09:30N 29°40' W 094°13'0 0.0
2018-Feb-18 09:00N 29°40' W 094°13'0 0.1
2018-Feb-18 08:30N 29°40' W 094°13'0 0.0
2018-Feb-18 07:58N 29°40' W 094°13'1 2.1
2018-Feb-18 07:30N 29°41' W 094°12'2 3.7
2018-Feb-18 07:00N 29°41' W 094°10'1 1.7
2018-Feb-18 06:30N 29°42' W 094°09'1 1.3
2018-Feb-18 06:00N 29°42' W 094°08'2 3.7
2018-Feb-18 05:30N 29°43' W 094°07'2 3.8
2018-Feb-18 05:00N 29°45' W 094°05'1 2.1
2018-Feb-18 04:30N 29°45' W 094°04'0 0.1
2018-Feb-18 04:00N 29°45' W 094°04'0 0.0
2018-Feb-18 03:30N 29°45' W 094°04'0 0.0
2018-Feb-18 03:00N 29°45' W 094°04'1 2.6
2018-Feb-18 02:30N 29°46' W 094°03'2 4.5
2018-Feb-18 02:00N 29°47' W 094°01'2 4.3
2018-Feb-18 01:30N 29°49' W 093°59'1 2.4
2018-Feb-18 01:00N 29°49' W 093°58'2 4.0
2018-Feb-18 00:30N 29°51' W 093°57'2 4.1
2018-Feb-18 00:00N 29°53' W 093°55'2 4.1
2018-Feb-17 23:31N 29°54' W 093°54'2 4.3
2018-Feb-17 23:00N 29°56' W 093°52'2 4.4
2018-Feb-17 22:30N 29°58' W 093°51'2 3.9
2018-Feb-17 22:00N 29°59' W 093°49'2 4.7
2018-Feb-17 21:30N 29°60' W 093°47'2 4.7
2018-Feb-17 21:00N 30°01' W 093°45'2 4.5
2018-Feb-17 20:30N 30°03' W 093°43'2 4.0
2018-Feb-17 20:00N 30°04' W 093°41'2 3.7
2018-Feb-17 19:30N 30°04' W 093°39'2 3.9
2018-Feb-17 19:00N 30°04' W 093°36'2 3.4
2018-Feb-17 18:30N 30°04' W 093°34'2 3.5
2018-Feb-17 18:00N 30°04' W 093°32'2 3.7
2018-Feb-17 17:30N 30°04' W 093°30'2 3.7
2018-Feb-17 17:00N 30°04' W 093°28'2 3.7
2018-Feb-17 16:30N 30°04' W 093°26'2 3.7
2018-Feb-17 16:00N 30°04' W 093°24'1 1.0
2018-Feb-17 15:30N 30°04' W 093°23'0 0.0
2018-Feb-17 15:00N 30°04' W 093°23'0 0.0
2018-Feb-17 14:30N 30°04' W 093°23'0 0.0
2018-Feb-17 14:00N 30°04' W 093°23'0 0.0
2018-Feb-17 13:29N 30°04' W 093°23'0 0.0
2018-Feb-17 13:00N 30°04' W 093°23'0 0.0
2018-Feb-17 12:30N 30°04' W 093°23'0 0.0
2018-Feb-17 12:00N 30°04' W 093°23'0 0.4
2018-Feb-17 11:30N 30°04' W 093°23'0 0.1
2018-Feb-17 11:00N 30°04' W 093°23'0 0.0
2018-Feb-17 10:30N 30°04' W 093°23'0 0.0
2018-Feb-17 10:00N 30°04' W 093°23'0 0.0
2018-Feb-17 09:30N 30°04' W 093°23'0 0.0
2018-Feb-17 09:00N 30°04' W 093°23'0 0.0
2018-Feb-17 08:30N 30°04' W 093°23'0 0.0
2018-Feb-17 08:00N 30°04' W 093°23'0 0.0
2018-Feb-17 07:30N 30°04' W 093°23'0 0.0
2018-Feb-17 07:00N 30°04' W 093°23'0 0.0
2018-Feb-17 06:30N 30°04' W 093°23'0 0.0
2018-Feb-17 06:00N 30°04' W 093°23'0 0.0
2018-Feb-17 05:30N 30°04' W 093°23'0 0.0
2018-Feb-17 05:00N 30°04' W 093°23'0 0.0
2018-Feb-17 04:30N 30°04' W 093°23'0 0.0
2018-Feb-17 04:00N 30°04' W 093°23'0 0.0
2018-Feb-17 03:30N 30°04' W 093°23'0 0.0
2018-Feb-17 03:00N 30°04' W 093°23'0 0.0
2018-Feb-17 02:30N 30°04' W 093°23'0 0.1
2018-Feb-17 02:00N 30°04' W 093°23'2 3.2
2018-Feb-17 01:28N 30°04' W 093°21'2 3.8
2018-Feb-17 01:00N 30°05' W 093°20'2 3.7
2018-Feb-17 00:30N 30°07' W 093°20'1 2.6
2018-Feb-17 00:01N 30°08' W 093°20'0 0.0
2018-Feb-16 23:28N 30°08' W 093°20'0 0.2
2018-Feb-16 23:00N 30°08' W 093°19'0 0.1
2018-Feb-16 22:30N 30°08' W 093°19'0 0.0
2018-Feb-16 22:00N 30°08' W 093°19'0 0.0
2018-Feb-16 21:30N 30°08' W 093°19'0 0.0
2018-Feb-16 21:00N 30°08' W 093°19'0 0.0
2018-Feb-16 20:30N 30°08' W 093°19'0 0.0
2018-Feb-16 20:00N 30°08' W 093°19'0 0.0
2018-Feb-16 19:30N 30°08' W 093°19'0 0.0
2018-Feb-16 19:00N 30°08' W 093°19'0 0.0
2018-Feb-16 18:30N 30°08' W 093°19'0 0.0
2018-Feb-16 18:00N 30°08' W 093°19'0 0.0
2018-Feb-16 17:30N 30°08' W 093°19'0 0.0
2018-Feb-16 17:00N 30°08' W 093°19'0 0.0
2018-Feb-16 16:30N 30°08' W 093°19'0 0.0
2018-Feb-16 16:00N 30°08' W 093°19'0 0.0
2018-Feb-16 15:30N 30°08' W 093°19'0 0.0
2018-Feb-16 15:00N 30°08' W 093°19'0 0.0
2018-Feb-16 14:30N 30°08' W 093°19'0 0.0
2018-Feb-16 14:00N 30°08' W 093°19'0 0.0
2018-Feb-16 13:30N 30°08' W 093°19'0 0.0
2018-Feb-16 13:00N 30°08' W 093°19'0 0.0
2018-Feb-16 12:30N 30°08' W 093°19'0 0.0
2018-Feb-16 12:00N 30°08' W 093°19'0 0.0
2018-Feb-16 11:30N 30°08' W 093°19'0 0.0
2018-Feb-16 11:00N 30°08' W 093°19'0 0.0
2018-Feb-16 10:30N 30°08' W 093°19'0 0.0
2018-Feb-16 10:00N 30°08' W 093°19'0 0.0
2018-Feb-16 09:30N 30°08' W 093°19'0 0.0
2018-Feb-16 09:00N 30°08' W 093°19'0 0.0
2018-Feb-16 08:30N 30°08' W 093°19'0 0.0
2018-Feb-16 08:00N 30°08' W 093°19'0 0.0
2018-Feb-16 07:30N 30°08' W 093°19'0 0.0
2018-Feb-16 07:00N 30°08' W 093°19'0 0.0
2018-Feb-16 06:30N 30°08' W 093°19'0 0.0
2018-Feb-16 06:00N 30°08' W 093°19'0 0.0
2018-Feb-16 05:30N 30°08' W 093°19'0 0.0
2018-Feb-16 05:00N 30°08' W 093°19'0 0.0
2018-Feb-16 04:30N 30°08' W 093°19'0 0.0
2018-Feb-16 04:00N 30°08' W 093°19'0 0.0
2018-Feb-16 03:30N 30°08' W 093°19'0 0.0
2018-Feb-16 03:00N 30°08' W 093°19'0 0.0
2018-Feb-16 02:30N 30°08' W 093°19'0 0.0
2018-Feb-16 02:00N 30°08' W 093°19'0 0.0
2018-Feb-16 01:30N 30°08' W 093°19'0 0.0
2018-Feb-16 01:00N 30°08' W 093°19'0 0.0
2018-Feb-16 00:30N 30°08' W 093°19'0 0.2
2018-Feb-16 00:00N 30°08' W 093°19'0 0.0
2018-Feb-15 23:30N 30°08' W 093°19'0 0.0
2018-Feb-15 23:00N 30°08' W 093°19'0 0.0
2018-Feb-15 22:30N 30°08' W 093°19'0 0.3
2018-Feb-15 22:00N 30°08' W 093°20'0 0.0
2018-Feb-15 21:30N 30°08' W 093°20'0 0.0
2018-Feb-15 21:00N 30°08' W 093°20'0 0.0
2018-Feb-15 20:30N 30°08' W 093°20'0 0.0
2018-Feb-15 20:00N 30°08' W 093°20'0 0.0
2018-Feb-15 19:30N 30°08' W 093°20'0 0.0
2018-Feb-15 19:00N 30°08' W 093°20'0 0.0
2018-Feb-15 18:30N 30°08' W 093°20'0 0.4
2018-Feb-15 18:00N 30°08' W 093°20'2 4.1
2018-Feb-15 17:30N 30°06' W 093°20'1 1.5
2018-Feb-15 17:00N 30°06' W 093°19'0 0.0
2018-Feb-15 16:30N 30°06' W 093°19'1 1.6
2018-Feb-15 16:00N 30°06' W 093°18'2 3.1
2018-Feb-15 15:30N 30°05' W 093°17'1 1.6
2018-Feb-15 15:00N 30°04' W 093°16'0 0.0
2018-Feb-15 14:30N 30°04' W 093°16'0 0.0
2018-Feb-15 14:00N 30°04' W 093°16'0 0.0
2018-Feb-15 13:30N 30°04' W 093°16'0 0.0
2018-Feb-15 13:00N 30°04' W 093°16'0 0.0
2018-Feb-15 12:30N 30°04' W 093°16'0 0.0
2018-Feb-15 12:00N 30°04' W 093°16'0 0.0
2018-Feb-15 11:30N 30°04' W 093°16'0 0.0
2018-Feb-15 11:00N 30°04' W 093°16'0 0.0
2018-Feb-15 10:30N 30°04' W 093°16'0 0.0
2018-Feb-15 10:00N 30°04' W 093°16'0 0.0
2018-Feb-15 09:30N 30°04' W 093°16'0 0.0
2018-Feb-15 09:00N 30°04' W 093°16'0 0.0
2018-Feb-15 08:30N 30°04' W 093°16'0 0.0
2018-Feb-15 08:00N 30°04' W 093°16'0 0.0
2018-Feb-15 07:30N 30°04' W 093°16'0 0.0
2018-Feb-15 06:59N 30°04' W 093°16'0 0.0
2018-Feb-15 06:30N 30°04' W 093°16'0 0.0
2018-Feb-15 06:00N 30°04' W 093°16'0 0.0
2018-Feb-15 05:30N 30°04' W 093°16'0 0.0
2018-Feb-15 05:00N 30°04' W 093°16'0 0.1
2018-Feb-15 04:30N 30°04' W 093°16'0 0.0
2018-Feb-15 04:00N 30°04' W 093°16'0 0.0
2018-Feb-15 03:30N 30°04' W 093°16'0 0.0
2018-Feb-15 03:00N 30°04' W 093°16'0 0.0
2018-Feb-15 02:30N 30°04' W 093°16'0 0.7
2018-Feb-15 02:00N 30°04' W 093°16'2 3.1
2018-Feb-15 01:30N 30°02' W 093°15'2 3.1
2018-Feb-15 01:00N 30°01' W 093°14'1 2.8
2018-Feb-15 00:30N 30°00' W 093°13'3 6.1
2018-Feb-15 00:00N 29°58' W 093°11'3 5.4
2018-Feb-14 23:30N 29°56' W 093°09'3 5.7
2018-Feb-14 23:00N 29°56' W 093°05'38 2.3
2018-Feb-14 06:37N 29°51' W 092°22'1 4.5
2018-Feb-14 06:30N 29°51' W 092°21'2 3.4
2018-Feb-14 06:00N 29°50' W 092°19'2 4.3
2018-Feb-14 05:30N 29°49' W 092°17'3 5.2
2018-Feb-14 05:00N 29°48' W 092°15'2 4.4
2018-Feb-14 04:30N 29°47' W 092°12'  
Track history (hours):
 
Tides and Currents Weather Stations Pressure Air Temp Water Temp Dewpoint Dewpoint Depression Visibility Wind Speed Wind Dir Waves Ship Positions

M/V Donald Wood

Owner: Wood Towing, LLC., Avondale, LA. More information available from US FCC via Universal Licensing System.

Last reported at 2018-Feb-20 09:47 UTC. Time now 2018-Feb-20 11:25 UTC.
Position N 29°46' W 095°05'.

Length 23 m; draft 2.6 m.

Type: Towing. MMSI: 367649170.

Date/timePositionNaut miles runAvg speedWind from/ knotsBaromVisibWave heightAir tempDewpointWater temp
2018-Feb-20 09:47N 29°46' W 095°05'3 2.8
2018-Feb-20 08:37N 29°44' W 095°02'1 3.7
2018-Feb-20 08:20N 29°43' W 095°01'1 3.8
2018-Feb-20 08:00N 29°42' W 095°01'2 4.2
2018-Feb-20 07:30N 29°41' W 094°59'2 4.3
2018-Feb-20 07:00N 29°39' W 094°58'2 4.5
2018-Feb-20 06:30N 29°37' W 094°57'2 4.5
2018-Feb-20 06:00N 29°35' W 094°56'2 4.5
2018-Feb-20 05:30N 29°33' W 094°55'13 1.7
2018-Feb-19 21:50N 29°27' W 094°41'1 3.3
2018-Feb-19 21:24N 29°28' W 094°39'2 3.1
2018-Feb-19 20:44N 29°29' W 094°37'1 3.5
2018-Feb-19 20:30N 29°29' W 094°36'2 3.3
2018-Feb-19 19:52N 29°30' W 094°34'1 2.9
2018-Feb-19 19:30N 29°30' W 094°33'3 3.7
2018-Feb-19 18:45N 29°31' W 094°30'1 3.5
2018-Feb-19 18:26N 29°32' W 094°29'0 0.9
2018-Feb-19 18:00N 29°32' W 094°29'0 0.0
2018-Feb-19 17:21N 29°32' W 094°29'0 0.0
2018-Feb-19 16:58N 29°32' W 094°29'0 0.1
2018-Feb-19 16:29N 29°32' W 094°29'1 2.7
2018-Feb-19 16:00N 29°33' W 094°28'0 0.6
2018-Feb-19 15:30N 29°34' W 094°28'0 0.0
2018-Feb-19 15:00N 29°34' W 094°28'0 0.1
2018-Feb-19 14:30N 29°34' W 094°27'0 0.5
2018-Feb-19 14:00N 29°34' W 094°27'1 2.2
2018-Feb-19 13:30N 29°34' W 094°26'0 0.2
2018-Feb-19 12:46N 29°34' W 094°26'0 0.0
2018-Feb-19 12:29N 29°34' W 094°26'0 0.0
2018-Feb-19 11:57N 29°34' W 094°26'0 0.1
2018-Feb-19 11:28N 29°34' W 094°26'0 0.0
2018-Feb-19 10:55N 29°34' W 094°26'0 0.0
2018-Feb-19 10:30N 29°34' W 094°26'0 0.0
2018-Feb-19 10:00N 29°34' W 094°26'0 0.0
2018-Feb-19 09:30N 29°34' W 094°26'0 0.0
2018-Feb-19 09:00N 29°34' W 094°26'0 0.0
2018-Feb-19 08:30N 29°34' W 094°26'0 0.0
2018-Feb-19 08:00N 29°34' W 094°26'0 0.0
2018-Feb-19 07:30N 29°34' W 094°26'0 0.0
2018-Feb-19 07:00N 29°34' W 094°26'0 0.0
2018-Feb-19 06:30N 29°34' W 094°26'0 0.0
2018-Feb-19 06:00N 29°34' W 094°26'0 0.0
2018-Feb-19 05:30N 29°34' W 094°26'0 0.0
2018-Feb-19 05:00N 29°34' W 094°26'0 0.0
2018-Feb-19 04:27N 29°34' W 094°26'0 0.0
2018-Feb-19 03:54N 29°34' W 094°26'0 0.0
2018-Feb-19 03:30N 29°34' W 094°26'0 0.0
2018-Feb-19 02:57N 29°34' W 094°26'0 0.0
2018-Feb-19 02:30N 29°34' W 094°26'0 0.0
2018-Feb-19 02:00N 29°34' W 094°26'0 0.0
2018-Feb-19 01:30N 29°34' W 094°26'0 0.0
2018-Feb-19 00:06N 29°34' W 094°26'0 0.1
2018-Feb-18 23:41N 29°34' W 094°26'0 0.0
2018-Feb-18 23:30N 29°34' W 094°26'0 0.1
2018-Feb-18 22:41N 29°34' W 094°26'0 1.5
2018-Feb-18 22:23N 29°34' W 094°25'2 3.8
2018-Feb-18 21:58N 29°36' W 094°25'2 3.7
2018-Feb-18 21:30N 29°36' W 094°23'2 3.9
2018-Feb-18 21:00N 29°37' W 094°21'2 4.3
2018-Feb-18 20:30N 29°38' W 094°19'2 3.0
2018-Feb-18 20:00N 29°38' W 094°17'1 2.8
2018-Feb-18 19:30N 29°39' W 094°16'1 1.3
2018-Feb-18 19:00N 29°39' W 094°15'1 2.1
2018-Feb-18 18:30N 29°40' W 094°14'1 2.4
2018-Feb-18 18:00N 29°40' W 094°13'0 0.0
2018-Feb-18 17:30N 29°40' W 094°13'0 0.0
2018-Feb-18 17:00N 29°40' W 094°13'0 0.0
2018-Feb-18 16:30N 29°40' W 094°13'0 0.0
2018-Feb-18 16:00N 29°40' W 094°13'0 0.0
2018-Feb-18 15:31N 29°40' W 094°13'0 0.0
2018-Feb-18 15:00N 29°40' W 094°13'0 0.0
2018-Feb-18 14:30N 29°40' W 094°13'0 0.0
2018-Feb-18 14:00N 29°40' W 094°13'0 0.0
2018-Feb-18 13:30N 29°40' W 094°13'0 0.0
2018-Feb-18 13:00N 29°40' W 094°13'0 0.0
2018-Feb-18 12:30N 29°40' W 094°13'0 0.0
2018-Feb-18 12:00N 29°40' W 094°13'0 0.0
2018-Feb-18 11:30N 29°40' W 094°13'0 0.0
2018-Feb-18 10:58N 29°40' W 094°13'0 0.0
2018-Feb-18 10:30N 29°40' W 094°13'0 0.0
2018-Feb-18 10:00N 29°40' W 094°13'0 0.0
2018-Feb-18 09:30N 29°40' W 094°13'0 0.0
2018-Feb-18 09:00N 29°40' W 094°13'0 0.1
2018-Feb-18 08:30N 29°40' W 094°13'0 0.0
2018-Feb-18 07:58N 29°40' W 094°13'1 2.1
2018-Feb-18 07:30N 29°41' W 094°12'2 3.7
2018-Feb-18 07:00N 29°41' W 094°10'1 1.7
2018-Feb-18 06:30N 29°42' W 094°09'1 1.3
2018-Feb-18 06:00N 29°42' W 094°08'2 3.7
2018-Feb-18 05:30N 29°43' W 094°07'2 3.8
2018-Feb-18 05:00N 29°45' W 094°05'1 2.1
2018-Feb-18 04:30N 29°45' W 094°04'0 0.1
2018-Feb-18 04:00N 29°45' W 094°04'0 0.0
2018-Feb-18 03:30N 29°45' W 094°04'0 0.0
2018-Feb-18 03:00N 29°45' W 094°04'1 2.6
2018-Feb-18 02:30N 29°46' W 094°03'2 4.5
2018-Feb-18 02:00N 29°47' W 094°01'2 4.3
2018-Feb-18 01:30N 29°49' W 093°59'1 2.4
2018-Feb-18 01:00N 29°49' W 093°58'2 4.0
2018-Feb-18 00:30N 29°51' W 093°57'2 4.1
2018-Feb-18 00:00N 29°53' W 093°55'2 4.1
2018-Feb-17 23:31N 29°54' W 093°54'2 4.3
2018-Feb-17 23:00N 29°56' W 093°52'2 4.4
2018-Feb-17 22:30N 29°58' W 093°51'2 3.9
2018-Feb-17 22:00N 29°59' W 093°49'2 4.7
2018-Feb-17 21:30N 29°60' W 093°47'2 4.7
2018-Feb-17 21:00N 30°01' W 093°45'2 4.5
2018-Feb-17 20:30N 30°03' W 093°43'2 4.0
2018-Feb-17 20:00N 30°04' W 093°41'2 3.7
2018-Feb-17 19:30N 30°04' W 093°39'2 3.9
2018-Feb-17 19:00N 30°04' W 093°36'2 3.4
2018-Feb-17 18:30N 30°04' W 093°34'2 3.5
2018-Feb-17 18:00N 30°04' W 093°32'2 3.7
2018-Feb-17 17:30N 30°04' W 093°30'2 3.7
2018-Feb-17 17:00N 30°04' W 093°28'2 3.7
2018-Feb-17 16:30N 30°04' W 093°26'2 3.7
2018-Feb-17 16:00N 30°04' W 093°24'1 1.0
2018-Feb-17 15:30N 30°04' W 093°23'0 0.0
2018-Feb-17 15:00N 30°04' W 093°23'0 0.0
2018-Feb-17 14:30N 30°04' W 093°23'0 0.0
2018-Feb-17 14:00N 30°04' W 093°23'0 0.0
2018-Feb-17 13:29N 30°04' W 093°23'0 0.0
2018-Feb-17 13:00N 30°04' W 093°23'0 0.0
2018-Feb-17 12:30N 30°04' W 093°23'0 0.0
2018-Feb-17 12:00N 30°04' W 093°23'0 0.4
2018-Feb-17 11:30N 30°04' W 093°23'0 0.1
2018-Feb-17 11:00N 30°04' W 093°23'0 0.0
2018-Feb-17 10:30N 30°04' W 093°23'0 0.0
2018-Feb-17 10:00N 30°04' W 093°23'0 0.0
2018-Feb-17 09:30N 30°04' W 093°23'0 0.0
2018-Feb-17 09:00N 30°04' W 093°23'0 0.0
2018-Feb-17 08:30N 30°04' W 093°23'0 0.0
2018-Feb-17 08:00N 30°04' W 093°23'0 0.0
2018-Feb-17 07:30N 30°04' W 093°23'0 0.0
2018-Feb-17 07:00N 30°04' W 093°23'0 0.0
2018-Feb-17 06:30N 30°04' W 093°23'0 0.0
2018-Feb-17 06:00N 30°04' W 093°23'0 0.0
2018-Feb-17 05:30N 30°04' W 093°23'0 0.0
2018-Feb-17 05:00N 30°04' W 093°23'0 0.0
2018-Feb-17 04:30N 30°04' W 093°23'0 0.0
2018-Feb-17 04:00N 30°04' W 093°23'0 0.0
2018-Feb-17 03:30N 30°04' W 093°23'0 0.0
2018-Feb-17 03:00N 30°04' W 093°23'0 0.0
2018-Feb-17 02:30N 30°04' W 093°23'0 0.1
2018-Feb-17 02:00N 30°04' W 093°23'2 3.2
2018-Feb-17 01:28N 30°04' W 093°21'2 3.8
2018-Feb-17 01:00N 30°05' W 093°20'2 3.7
2018-Feb-17 00:30N 30°07' W 093°20'1 2.6
2018-Feb-17 00:01N 30°08' W 093°20'0 0.0
2018-Feb-16 23:28N 30°08' W 093°20'0 0.2
2018-Feb-16 23:00N 30°08' W 093°19'0 0.1
2018-Feb-16 22:30N 30°08' W 093°19'0 0.0
2018-Feb-16 22:00N 30°08' W 093°19'0 0.0
2018-Feb-16 21:30N 30°08' W 093°19'0 0.0
2018-Feb-16 21:00N 30°08' W 093°19'0 0.0
2018-Feb-16 20:30N 30°08' W 093°19'0 0.0
2018-Feb-16 20:00N 30°08' W 093°19'0 0.0
2018-Feb-16 19:30N 30°08' W 093°19'0 0.0
2018-Feb-16 19:00N 30°08' W 093°19'0 0.0
2018-Feb-16 18:30N 30°08' W 093°19'0 0.0
2018-Feb-16 18:00N 30°08' W 093°19'0 0.0
2018-Feb-16 17:30N 30°08' W 093°19'0 0.0
2018-Feb-16 17:00N 30°08' W 093°19'0 0.0
2018-Feb-16 16:30N 30°08' W 093°19'0 0.0
2018-Feb-16 16:00N 30°08' W 093°19'0 0.0
2018-Feb-16 15:30N 30°08' W 093°19'0 0.0
2018-Feb-16 15:00N 30°08' W 093°19'0 0.0
2018-Feb-16 14:30N 30°08' W 093°19'0 0.0
2018-Feb-16 14:00N 30°08' W 093°19'0 0.0
2018-Feb-16 13:30N 30°08' W 093°19'0 0.0
2018-Feb-16 13:00N 30°08' W 093°19'0 0.0
2018-Feb-16 12:30N 30°08' W 093°19'0 0.0
2018-Feb-16 12:00N 30°08' W 093°19'0 0.0
2018-Feb-16 11:30N 30°08' W 093°19'0 0.0
2018-Feb-16 11:00N 30°08' W 093°19'0 0.0
2018-Feb-16 10:30N 30°08' W 093°19'0 0.0
2018-Feb-16 10:00N 30°08' W 093°19'0 0.0
2018-Feb-16 09:30N 30°08' W 093°19'0 0.0
2018-Feb-16 09:00N 30°08' W 093°19'0 0.0
2018-Feb-16 08:30N 30°08' W 093°19'0 0.0
2018-Feb-16 08:00N 30°08' W 093°19'0 0.0
2018-Feb-16 07:30N 30°08' W 093°19'0 0.0
2018-Feb-16 07:00N 30°08' W 093°19'0 0.0
2018-Feb-16 06:30N 30°08' W 093°19'0 0.0
2018-Feb-16 06:00N 30°08' W 093°19'0 0.0
2018-Feb-16 05:30N 30°08' W 093°19'0 0.0
2018-Feb-16 05:00N 30°08' W 093°19'0 0.0
2018-Feb-16 04:30N 30°08' W 093°19'0 0.0
2018-Feb-16 04:00N 30°08' W 093°19'0 0.0
2018-Feb-16 03:30N 30°08' W 093°19'0 0.0
2018-Feb-16 03:00N 30°08' W 093°19'0 0.0
2018-Feb-16 02:30N 30°08' W 093°19'0 0.0
2018-Feb-16 02:00N 30°08' W 093°19'0 0.0
2018-Feb-16 01:30N 30°08' W 093°19'0 0.0
2018-Feb-16 01:00N 30°08' W 093°19'0 0.0
2018-Feb-16 00:30N 30°08' W 093°19'0 0.2
2018-Feb-16 00:00N 30°08' W 093°19'0 0.0
2018-Feb-15 23:30N 30°08' W 093°19'0 0.0
2018-Feb-15 23:00N 30°08' W 093°19'0 0.0
2018-Feb-15 22:30N 30°08' W 093°19'0 0.3
2018-Feb-15 22:00N 30°08' W 093°20'0 0.0
2018-Feb-15 21:30N 30°08' W 093°20'0 0.0
2018-Feb-15 21:00N 30°08' W 093°20'0 0.0
2018-Feb-15 20:30N 30°08' W 093°20'0 0.0
2018-Feb-15 20:00N 30°08' W 093°20'0 0.0
2018-Feb-15 19:30N 30°08' W 093°20'0 0.0
2018-Feb-15 19:00N 30°08' W 093°20'0 0.0
2018-Feb-15 18:30N 30°08' W 093°20'0 0.4
2018-Feb-15 18:00N 30°08' W 093°20'2 4.1
2018-Feb-15 17:30N 30°06' W 093°20'1 1.5
2018-Feb-15 17:00N 30°06' W 093°19'0 0.0
2018-Feb-15 16:30N 30°06' W 093°19'1 1.6
2018-Feb-15 16:00N 30°06' W 093°18'2 3.1
2018-Feb-15 15:30N 30°05' W 093°17'1 1.6
2018-Feb-15 15:00N 30°04' W 093°16'0 0.0
2018-Feb-15 14:30N 30°04' W 093°16'0 0.0
2018-Feb-15 14:00N 30°04' W 093°16'0 0.0
2018-Feb-15 13:30N 30°04' W 093°16'0 0.0
2018-Feb-15 13:00N 30°04' W 093°16'0 0.0
2018-Feb-15 12:30N 30°04' W 093°16'0 0.0
2018-Feb-15 12:00N 30°04' W 093°16'0 0.0
2018-Feb-15 11:30N 30°04' W 093°16'0 0.0
2018-Feb-15 11:00N 30°04' W 093°16'0 0.0
2018-Feb-15 10:30N 30°04' W 093°16'0 0.0
2018-Feb-15 10:00N 30°04' W 093°16'0 0.0
2018-Feb-15 09:30N 30°04' W 093°16'0 0.0
2018-Feb-15 09:00N 30°04' W 093°16'0 0.0
2018-Feb-15 08:30N 30°04' W 093°16'0 0.0
2018-Feb-15 08:00N 30°04' W 093°16'0 0.0
2018-Feb-15 07:30N 30°04' W 093°16'0 0.0
2018-Feb-15 06:59N 30°04' W 093°16'0 0.0
2018-Feb-15 06:30N 30°04' W 093°16'0 0.0
2018-Feb-15 06:00N 30°04' W 093°16'0 0.0
2018-Feb-15 05:30N 30°04' W 093°16'0 0.0
2018-Feb-15 05:00N 30°04' W 093°16'0 0.1
2018-Feb-15 04:30N 30°04' W 093°16'0 0.0
2018-Feb-15 04:00N 30°04' W 093°16'0 0.0
2018-Feb-15 03:30N 30°04' W 093°16'0 0.0
2018-Feb-15 03:00N 30°04' W 093°16'0 0.0
2018-Feb-15 02:30N 30°04' W 093°16'0 0.7
2018-Feb-15 02:00N 30°04' W 093°16'2 3.1
2018-Feb-15 01:30N 30°02' W 093°15'2 3.1
2018-Feb-15 01:00N 30°01' W 093°14'1 2.8
2018-Feb-15 00:30N 30°00' W 093°13'3 6.1
2018-Feb-15 00:00N 29°58' W 093°11'3 5.4
2018-Feb-14 23:30N 29°56' W 093°09'3 5.7
2018-Feb-14 23:00N 29°56' W 093°05'38 2.3
2018-Feb-14 06:37N 29°51' W 092°22'1 4.5
2018-Feb-14 06:30N 29°51' W 092°21'2 3.4
2018-Feb-14 06:00N 29°50' W 092°19'2 4.3
2018-Feb-14 05:30N 29°49' W 092°17'3 5.2
2018-Feb-14 05:00N 29°48' W 092°15'2 4.4
2018-Feb-14 04:30N 29°47' W 092°12'  

Dump ship's entire track history